Time;durP1;ratioP1;P1;durP2;ratioP2;P2;SDS_P1;SDS_P2;PMS_P1;PMS_P2;Temp;Humidity;BMP_temperature;BMP_pressure;BME280_temperature;BME280_humidity;BME280_pressure;Samples;Min_cycle;Max_cycle;Signal;HPM_P1;HPM_P2
2021/01/17 00:01:04;;;;;;;37.67;20.00;;;;;;;-4.13;80.75;99067.63;1818651;79;21348;-55
2021/01/17 00:03:31;;;;;;;35.88;20.15;;;;;;;-4.08;80.80;99069.83;1818509;79;21060;-55
2021/01/17 00:05:59;;;;;;;38.50;19.82;;;;;;;-4.03;80.80;99069.52;1818717;79;21045;-55
2021/01/17 00:08:26;;;;;;;37.58;19.65;;;;;;;-4.00;80.64;99074.26;1818626;78;21128;-55
2021/01/17 00:10:54;;;;;;;35.38;19.85;;;;;;;-3.97;80.62;99078.53;1818701;78;21188;-55
2021/01/17 00:13:23;;;;;;;36.08;19.82;;;;;;;-3.95;80.50;99076.87;1779496;80;21175;-55
2021/01/17 00:15:52;;;;;;;37.63;20.68;;;;;;;-3.92;80.41;99082.03;1813073;79;21164;-55
2021/01/17 00:18:20;;;;;;;39.70;22.40;;;;;;;-3.94;80.28;99081.97;1818823;78;21041;-55
2021/01/17 00:20:51;;;;;;;37.90;20.85;;;;;;;-4.00;80.00;99084.41;1775543;80;21132;-55
2021/01/17 00:23:18;;;;;;;39.80;21.80;;;;;;;-4.11;80.12;99091.36;1813064;79;21113;-55
2021/01/17 00:25:47;;;;;;;37.90;21.73;;;;;;;-4.22;80.16;99088.20;1818940;78;21329;-57
2021/01/17 00:28:15;;;;;;;33.10;19.70;;;;;;;-4.25;80.54;99088.53;1779239;80;21121;-58
2021/01/17 00:30:43;;;;;;;35.15;19.10;;;;;;;-4.23;80.73;99095.38;1813270;79;21113;-56
2021/01/17 00:33:13;;;;;;;34.90;19.10;;;;;;;-4.17;80.84;99090.81;1818893;78;21466;-56
2021/01/17 00:35:41;;;;;;;35.15;19.25;;;;;;;-4.09;80.87;99099.85;1779572;80;21105;-56
2021/01/17 00:38:09;;;;;;;35.95;18.92;;;;;;;-4.05;80.64;99099.96;1813115;79;21443;-56
2021/01/17 00:40:36;;;;;;;32.25;18.42;;;;;;;-4.00;80.58;99103.88;1818897;78;21352;-57
2021/01/17 00:43:04;;;;;;;33.33;18.50;;;;;;;-3.97;80.45;99103.92;1779492;80;21149;-56
2021/01/17 00:45:34;;;;;;;33.50;18.35;;;;;;;-3.98;80.26;99111.95;1812923;79;21117;-55
2021/01/17 00:48:02;;;;;;;33.53;18.77;;;;;;;-3.98;80.32;99112.37;1819045;78;21483;-55
2021/01/17 00:50:30;;;;;;;32.30;18.23;;;;;;;-3.95;80.45;99114.55;1779248;80;21212;-56
2021/01/17 00:53:00;;;;;;;34.13;18.57;;;;;;;-3.93;80.35;99116.72;1813252;79;21081;-55
2021/01/17 00:55:29;;;;;;;36.60;18.42;;;;;;;-3.91;80.34;99118.88;1817584;78;21069;-56
2021/01/17 00:57:58;;;;;;;36.50;20.62;;;;;;;-3.87;80.27;99121.04;1779714;80;21204;-56
2021/01/17 01:00:28;;;;;;;44.35;24.15;;;;;;;-3.93;80.09;99121.80;1813119;79;21109;-56
2021/01/17 01:03:01;;;;;;;38.98;21.50;;;;;;;-3.96;80.43;99120.45;1818398;78;21205;-56
2021/01/17 01:05:29;;;;;;;43.38;24.00;;;;;;;-3.92;80.63;99123.92;1779353;80;21081;-56
2021/01/17 01:07:59;;;;;;;42.33;22.98;;;;;;;-3.88;80.61;99128.64;1813249;79;21136;-56
2021/01/17 01:10:26;;;;;;;43.28;24.70;;;;;;;-3.85;80.55;99127.03;1818830;78;21117;-56
2021/01/17 01:12:55;;;;;;;56.53;30.15;;;;;;;-3.83;80.49;99134.27;1778546;80;21167;-56
2021/01/17 01:15:23;;;;;;;59.58;31.87;;;;;;;-3.82;80.44;99131.30;1807239;79;21255;-57
2021/01/17 01:17:50;;;;;;;59.27;30.50;;;;;;;-3.86;80.37;99132.91;1778525;80;21089;-56
2021/01/17 01:20:18;;;;;;;48.28;25.88;;;;;;;-3.91;80.34;99134.52;1807244;79;21145;-56
2021/01/17 01:22:46;;;;;;;38.88;20.70;;;;;;;-3.92;80.57;99129.86;1778545;80;21120;-57
2021/01/17 01:25:14;;;;;;;36.08;19.25;;;;;;;-3.88;80.51;99129.91;1807101;79;21145;-56
2021/01/17 01:27:47;;;;;;;34.00;18.37;;;;;;;-3.83;80.45;99133.41;1778430;80;21376;-56
2021/01/17 01:30:16;;;;;;;35.88;18.50;;;;;;;-3.81;80.14;99135.14;1807091;79;21152;-56
2021/01/17 01:32:43;;;;;;;32.50;17.92;;;;;;;-3.81;80.12;99133.88;1778615;80;21128;-56
2021/01/17 01:35:12;;;;;;;35.73;18.52;;;;;;;-3.80;79.97;99135.58;1799040;79;21058;-57
2021/01/17 01:37:40;;;;;;;33.40;18.50;;;;;;;-3.82;79.95;99138.51;1812328;79;21416;-57
2021/01/17 01:40:31;;;;;;;37.15;18.90;;;;;;;-3.81;80.01;99136.41;1812168;79;22773;-56
2021/01/17 01:42:58;;;;;;;37.38;19.98;;;;;;;-3.77;79.99;99136.93;1748106;82;21101;-56
2021/01/17 01:45:26;;;;;;;37.83;20.30;;;;;;;-3.77;79.87;99140.73;1747727;82;21057;-57
2021/01/17 01:47:54;;;;;;;44.53;23.07;;;;;;;-3.73;79.74;99138.69;1748156;82;21156;-57
2021/01/17 01:50:22;;;;;;;47.70;25.23;;;;;;;-3.66;79.60;99142.20;1753582;81;21875;-56
2021/01/17 01:52:50;;;;;;;45.78;24.05;;;;;;;-3.60;79.53;99134.70;1748141;81;21368;-56
2021/01/17 01:55:18;;;;;;;43.15;23.75;;;;;;;-3.55;79.28;99142.39;1757047;80;21156;-58
2021/01/17 01:57:45;;;;;;;38.38;21.05;;;;;;;-3.51;79.17;99145.03;1747569;82;21152;-56
2021/01/17 02:00:16;;;;;;;38.23;21.75;;;;;;;-3.47;79.03;99139.61;1747296;82;21149;-56
2021/01/17 02:02:44;;;;;;;39.48;21.93;;;;;;;-3.44;78.90;99145.59;1753557;81;21378;-56
2021/01/17 02:05:13;;;;;;;36.93;21.82;;;;;;;-3.46;78.85;99144.72;1753697;81;21317;-56
2021/01/17 02:08:18;;;;;;;41.45;21.52;;;;;;;-3.48;78.76;99147.63;1753543;81;21215;-55
2021/01/17 02:10:46;;;;;;;41.75;22.82;;;;;;;-3.54;78.88;99150.49;1711663;83;21137;-55
2021/01/17 02:13:37;;;;;;;40.73;22.42;;;;;;;-3.60;79.16;99156.30;1716621;83;21573;-56
2021/01/17 02:16:07;;;;;;;45.30;24.40;;;;;;;-3.61;79.32;99157.55;1753796;81;21132;-55
2021/01/17 02:18:40;;;;;;;40.12;22.45;;;;;;;-3.59;79.59;99157.16;1747996;82;22228;-55
2021/01/17 02:21:09;;;;;;;50.67;27.10;;;;;;;-3.54;79.58;99147.95;1753475;81;21088;-56
2021/01/17 02:23:43;;;;;;;45.60;24.63;;;;;;;-3.47;79.56;99151.05;1747995;82;23362;-56
2021/01/17 02:26:11;;;;;;;46.10;25.02;;;;;;;-3.44;79.43;99144.74;1753790;81;21155;-56
2021/01/17 02:28:40;;;;;;;37.93;22.48;;;;;;;-3.42;79.29;99153.24;1748075;82;21059;-57
2021/01/17 02:31:08;;;;;;;36.25;20.35;;;;;;;-3.41;79.20;99153.27;1753821;81;21497;-56
2021/01/17 02:33:38;;;;;;;41.05;19.60;;;;;;;-3.43;78.89;99152.80;1727355;82;21526;-56
2021/01/17 02:36:30;;;;;;;45.30;21.82;;;;;;;-3.51;78.96;99158.16;1753820;81;21101;-56
2021/01/17 02:39:09;;;;;;;42.23;22.27;;;;;;;-3.57;79.05;99161.43;1748218;82;21062;-56
2021/01/17 02:41:45;;;;;;;39.08;20.08;;;;;;;-3.62;79.11;99165.59;1716064;83;21085;-55
2021/01/17 02:44:13;;;;;;;55.78;26.15;;;;;;;-3.67;79.35;99169.30;1717081;83;21362;-56
2021/01/17 02:46:41;;;;;;;45.17;23.83;;;;;;;-3.66;79.32;99171.00;1719810;83;21188;-55
2021/01/17 02:49:09;;;;;;;45.55;24.82;;;;;;;-3.77;79.05;99166.14;1740726;82;21042;-56
2021/01/17 02:51:38;;;;;;;42.70;23.47;;;;;;;-3.92;79.21;99170.91;1740756;82;21236;-56
2021/01/17 02:54:31;;;;;;;41.23;21.77;;;;;;;-4.05;79.52;99166.38;1740802;82;21065;-55
2021/01/17 02:57:08;;;;;;;34.23;19.37;;;;;;;-4.21;79.64;99166.47;1740826;82;21377;-56
2021/01/17 03:00:09;;;;;;;34.33;19.32;;;;;;;-4.44;80.03;99172.30;1740580;82;21100;-56
2021/01/17 03:02:45;;;;;;;32.80;16.77;;;;;;;-4.61;80.55;99179.91;1740827;82;21046;-56
2021/01/17 03:05:17;;;;;;;30.37;17.12;;;;;;;-4.76;80.68;99191.80;1740842;82;21187;-55
2021/01/17 03:07:57;;;;;;;30.97;17.55;;;;;;;-4.96;79.96;99191.33;1740749;82;21153;-55
2021/01/17 03:10:25;;;;;;;31.05;16.93;;;;;;;-5.23;80.03;99196.53;1740714;82;21380;-56
2021/01/17 03:12:53;;;;;;;28.40;17.17;;;;;;;-5.44;80.21;99205.70;1740757;82;21169;-56
2021/01/17 03:15:21;;;;;;;36.83;18.48;;;;;;;-5.65;80.27;99205.97;1740827;82;21165;-56
2021/01/17 03:17:49;;;;;;;36.30;20.10;;;;;;;-5.86;80.45;99204.94;1714027;82;21129;-56
2021/01/17 03:20:17;;;;;;;37.98;19.65;;;;;;;-6.01;80.81;99209.59;1740803;82;21065;-56
2021/01/17 03:22:45;;;;;;;37.83;18.75;;;;;;;-6.15;80.68;99220.55;1740574;82;22331;-56
2021/01/17 03:25:14;;;;;;;39.60;20.90;;;;;;;-6.31;80.69;99218.38;1740621;82;21168;-56
2021/01/17 03:27:42;;;;;;;37.80;19.60;;;;;;;-6.51;80.75;99219.00;1740588;82;21157;-56
2021/01/17 03:30:12;;;;;;;38.08;18.75;;;;;;;-6.66;80.90;99232.42;1740858;82;21089;-56
2021/01/17 03:32:40;;;;;;;39.67;19.10;;;;;;;-6.84;80.68;99233.09;1740583;82;21098;-55
2021/01/17 03:35:10;;;;;;;37.03;19.07;;;;;;;-7.04;80.60;99234.94;1740638;82;21436;-56
2021/01/17 03:37:38;;;;;;;30.62;17.75;;;;;;;-7.25;80.26;99232.56;1740568;82;21109;-55
2021/01/17 03:40:07;;;;;;;34.78;18.32;;;;;;;-7.45;80.28;99236.05;1740521;82;21086;-56
2021/01/17 03:42:35;;;;;;;31.15;17.10;;;;;;;-7.61;80.37;99238.02;1735767;82;21113;-55
2021/01/17 03:45:05;;;;;;;29.82;16.25;;;;;;;-7.75;80.63;99242.97;1748948;82;21133;-56
2021/01/17 03:47:33;;;;;;;32.48;17.17;;;;;;;-7.90;80.35;99248.70;1748815;82;21364;-56
2021/01/17 03:50:01;;;;;;;29.10;16.15;;;;;;;-8.06;80.59;99246.02;1748920;82;21176;-55
2021/01/17 03:52:29;;;;;;;31.73;17.07;;;;;;;-8.19;80.75;99253.50;1748602;82;21074;-59
2021/01/17 03:54:57;;;;;;;35.83;17.90;;;;;;;-8.29;80.82;99259.00;1748908;82;21058;-55
2021/01/17 03:57:25;;;;;;;33.00;17.85;;;;;;;-8.36;81.07;99253.69;1749120;82;21165;-55
2021/01/17 03:59:53;;;;;;;36.03;18.25;;;;;;;-8.39;81.11;99263.23;1748981;82;21382;-55
2021/01/17 04:02:20;;;;;;;33.35;17.77;;;;;;;-8.44;80.75;99260.95;1748697;82;21089;-56
2021/01/17 04:04:49;;;;;;;37.15;17.77;;;;;;;-8.49;80.87;99262.02;1748774;82;21191;-55
2021/01/17 04:07:17;;;;;;;35.03;17.82;;;;;;;-8.47;80.93;99267.11;1748888;82;21059;-56
2021/01/17 04:09:45;;;;;;;33.05;17.75;;;;;;;-8.47;80.60;99266.70;1748706;82;21161;-57
2021/01/17 04:12:13;;;;;;;35.63;18.00;;;;;;;-8.46;80.56;99272.64;1748868;82;21308;-56
2021/01/17 04:14:41;;;;;;;31.93;16.52;;;;;;;-8.48;80.20;99274.21;1748684;82;21144;-56
2021/01/17 04:17:09;;;;;;;38.42;19.02;;;;;;;-8.48;80.37;99279.26;1748924;82;21096;-56
2021/01/17 04:19:37;;;;;;;35.17;17.45;;;;;;;-8.43;80.46;99279.05;1748718;82;21070;-57
2021/01/17 04:22:05;;;;;;;35.40;17.73;;;;;;;-8.35;80.04;99285.66;1748983;82;21136;-57
2021/01/17 04:24:33;;;;;;;30.05;15.93;;;;;;;-8.38;79.46;99288.07;1748637;82;21266;-58
2021/01/17 04:27:02;;;;;;;34.27;17.07;;;;;;;-8.46;79.33;99297.84;1748953;82;21106;-57
2021/01/17 04:29:29;;;;;;;37.58;17.17;;;;;;;-8.55;79.47;99297.45;1748897;82;21499;-57
2021/01/17 04:31:58;;;;;;;28.35;14.23;;;;;;;-8.61;79.52;99300.60;1748949;82;21069;-56
2021/01/17 04:34:26;;;;;;;27.95;14.28;;;;;;;-8.67;79.47;99301.61;1748917;82;21085;-56
2021/01/17 04:36:55;;;;;;;32.17;16.70;;;;;;;-8.73;79.64;99307.24;1748673;82;22233;-55
2021/01/17 04:39:24;;;;;;;33.45;16.35;;;;;;;-8.76;79.90;99310.05;1748964;82;21152;-56
2021/01/17 04:41:57;;;;;;;29.87;15.43;;;;;;;-8.75;79.96;99311.77;1748857;82;21180;-56
2021/01/17 04:44:36;;;;;;;31.70;15.38;;;;;;;-8.78;79.68;99311.22;1749013;82;21149;-56
2021/01/17 04:47:04;;;;;;;36.23;17.23;;;;;;;-8.81;79.62;99314.02;1748732;82;21128;-56
2021/01/17 04:49:37;;;;;;;34.13;17.60;;;;;;;-8.87;79.58;99314.63;1748920;82;21351;-60
2021/01/17 04:52:08;;;;;;;32.42;15.38;;;;;;;-8.91;79.81;99315.30;1748817;82;21116;-56
2021/01/17 04:54:36;;;;;;;31.17;15.20;;;;;;;-8.90;79.99;99323.32;1748946;82;21546;-57
2021/01/17 04:57:10;;;;;;;34.20;16.27;;;;;;;-8.89;79.95;99319.14;1748698;82;21141;-56
2021/01/17 04:59:46;;;;;;;29.25;15.83;;;;;;;-8.91;79.93;99321.61;1748845;82;21070;-58
2021/01/17 05:02:34;;;;;;;;;;;;;;;-8.93;79.91;99321.91;1751392;82;21209;-56
2021/01/17 05:05:23;;;;;;;31.20;16.48;;;;;;;-8.93;79.95;99328.20;1748834;82;20279;-57
2021/01/17 05:07:59;;;;;;;26.45;14.45;;;;;;;-8.94;79.69;99332.79;1748837;82;21531;-57
2021/01/17 05:10:38;;;;;;;30.25;15.85;;;;;;;-8.99;79.55;99336.79;1745544;82;21077;-56
2021/01/17 05:13:16;;;;;;;32.28;15.83;;;;;;;-9.05;79.58;99339.03;1748966;82;21502;-56
2021/01/17 05:15:43;;;;;;;26.17;13.18;;;;;;;-9.10;79.43;99337.56;1748819;82;21368;-57
2021/01/17 05:18:12;;;;;;;31.95;15.18;;;;;;;-9.18;79.23;99345.58;1748859;82;21215;-57
2021/01/17 05:20:40;;;;;;;28.45;14.78;;;;;;;-9.28;79.33;99359.03;1748833;82;21061;-57
2021/01/17 05:23:10;;;;;;;21.05;13.53;;;;;;;-9.33;79.35;99362.13;1748786;82;21070;-57
2021/01/17 05:25:39;;;;;;;22.50;13.80;;;;;;;-9.36;79.50;99372.94;1748733;82;21510;-56
2021/01/17 05:28:06;;;;;;;27.02;14.80;;;;;;;-9.39;79.38;99370.27;1686769;82;21989;-57
2021/01/17 05:30:34;;;;;;;29.42;15.00;;;;;;;-9.42;79.40;99375.56;1748817;82;21152;-56
2021/01/17 05:33:07;;;;;;;26.48;14.03;;;;;;;-9.42;79.50;99379.34;1748907;82;21184;-56
2021/01/17 05:35:36;;;;;;;22.87;13.28;;;;;;;-9.44;79.52;99380.94;1748975;82;21522;-57
2021/01/17 05:38:04;;;;;;;22.82;13.32;;;;;;;-9.41;79.59;99391.99;1748782;82;21788;-57
2021/01/17 05:40:35;;;;;;;23.83;12.30;;;;;;;-9.41;79.52;99389.48;1748931;82;21388;-56
2021/01/17 05:43:03;;;;;;;27.05;13.90;;;;;;;-9.39;79.53;99392.91;1748626;82;21164;-57
2021/01/17 05:45:30;;;;;;;23.38;11.75;;;;;;;-9.41;79.43;99395.77;1748832;82;21081;-58
2021/01/17 05:48:02;;;;;;;26.42;14.75;;;;;;;-9.41;79.52;99394.51;1748784;82;21116;-55
2021/01/17 05:50:31;;;;;;;23.62;12.37;;;;;;;-9.40;79.49;99392.45;1748964;82;21061;-56
2021/01/17 05:53:03;;;;;;;25.70;13.65;;;;;;;-9.35;79.56;99397.70;1748823;82;22158;-55
2021/01/17 05:55:39;;;;;;;28.23;14.38;;;;;;;-9.34;79.62;99407.84;1748932;82;21132;-56
2021/01/17 05:58:25;;;;;;;32.45;14.85;;;;;;;-9.30;79.55;99402.13;1748990;82;21109;-57
2021/01/17 06:00:56;;;;;;;26.60;13.35;;;;;;;-9.26;79.58;99414.48;1748967;82;21161;-56
2021/01/17 06:03:32;;;;;;;28.77;14.15;;;;;;;-9.21;79.50;99415.96;1748886;82;21116;-56
2021/01/17 06:06:03;;;;;;;33.58;15.88;;;;;;;-9.18;79.40;99414.83;1749007;82;21424;-55
2021/01/17 06:08:31;;;;;;;36.88;17.52;;;;;;;-9.14;79.30;99420.45;1748835;82;21081;-55
2021/01/17 06:11:12;;;;;;;34.78;15.15;;;;;;;-9.14;79.20;99423.86;1748978;82;21304;-55
2021/01/17 06:13:41;;;;;;;30.50;15.35;;;;;;;-9.14;78.95;99428.90;1748893;82;21060;-56
2021/01/17 06:16:34;;;;;;;25.08;13.05;;;;;;;-9.12;78.93;99440.30;1749199;82;21511;-55
2021/01/17 06:19:06;;;;;;;26.70;13.93;;;;;;;-9.13;78.58;99446.13;1748990;82;22225;-55
2021/01/17 06:21:34;;;;;;;36.75;18.57;;;;;;;-9.21;78.55;99452.47;1748940;82;21582;-56
2021/01/17 06:24:05;;;;;;;34.48;16.77;;;;;;;-9.28;78.73;99453.45;1748951;82;21176;-55
2021/01/17 06:26:38;;;;;;;30.85;14.78;;;;;;;-9.25;78.88;99465.30;1749064;82;21569;-55
2021/01/17 06:29:09;;;;;;;37.58;15.65;;;;;;;-9.22;78.70;99469.20;1749023;82;21057;-56
2021/01/17 06:31:37;;;;;;;31.75;14.78;;;;;;;-9.21;78.59;99471.36;1748880;82;21372;-55
2021/01/17 06:34:11;;;;;;;31.85;16.90;;;;;;;-9.26;78.44;99474.51;1749041;82;22003;-55
2021/01/17 06:36:41;;;;;;;35.98;16.23;;;;;;;-9.26;78.59;99477.42;1748997;82;21049;-56
2021/01/17 06:39:25;;;;;;;33.42;17.73;;;;;;;-9.22;78.60;99481.80;1748987;82;21081;-56
2021/01/17 06:41:57;;;;;;;31.97;15.35;;;;;;;-9.23;78.50;99482.19;1748785;82;21537;-56
2021/01/17 06:44:29;;;;;;;31.40;14.90;;;;;;;-9.23;78.16;99489.75;1748962;81;21202;-55
2021/01/17 06:46:56;;;;;;;39.13;17.87;;;;;;;-9.27;78.17;99496.70;1748891;82;21085;-55
2021/01/17 06:49:29;;;;;;;38.00;18.95;;;;;;;-9.28;78.25;99492.47;1749084;82;21128;-56
2021/01/17 06:51:57;;;;;;;30.20;15.70;;;;;;;-9.27;78.26;99501.74;1748874;82;21073;-56
2021/01/17 06:54:35;;;;;;;33.18;15.85;;;;;;;-9.25;78.21;99495.11;1748966;82;21149;-55
2021/01/17 06:57:04;;;;;;;30.17;14.25;;;;;;;-9.23;78.29;99501.47;1748989;82;21195;-55
2021/01/17 06:59:41;;;;;;;29.12;14.98;;;;;;;-9.18;78.37;99506.34;1748896;82;21156;-57
2021/01/17 07:02:38;;;;;;;30.57;14.63;;;;;;;-9.10;78.15;99506.69;1749071;82;21062;-56
2021/01/17 07:05:34;;;;;;;;;;;;;;;-9.06;77.82;99511.09;1751637;82;21581;-56
2021/01/17 07:08:09;;;;;;;26.85;12.68;;;;;;;-9.07;77.70;99510.60;1703683;84;20507;-56
2021/01/17 07:10:41;;;;;;;39.25;16.95;;;;;;;-9.08;77.56;99512.26;1747138;82;21374;-57
2021/01/17 07:13:10;;;;;;;33.65;16.10;;;;;;;-9.10;77.50;99515.51;1747667;82;21088;-56
2021/01/17 07:15:41;;;;;;;35.30;17.57;;;;;;;-9.11;77.66;99525.98;1747632;82;21570;-56
2021/01/17 07:18:15;;;;;;;29.57;14.85;;;;;;;-9.09;77.74;99532.34;1747632;82;21123;-56
2021/01/17 07:20:47;;;;;;;42.30;22.25;;;;;;;-9.06;77.40;99537.54;1722173;83;21080;-60
2021/01/17 07:23:17;;;;;;;55.33;27.00;;;;;;;-9.05;77.36;99542.64;1716384;83;21352;-56
2021/01/17 07:25:47;;;;;;;49.60;22.48;;;;;;;-9.05;77.20;99542.64;1722073;83;21155;-57
2021/01/17 07:28:20;;;;;;;36.35;18.80;;;;;;;-9.01;77.42;99544.89;1716319;83;21163;-57
2021/01/17 07:31:02;;;;;;;40.88;20.27;;;;;;;-8.94;77.38;99550.69;1716038;83;21125;-57
2021/01/17 07:33:40;;;;;;;54.98;24.92;;;;;;;-8.92;76.99;99556.64;1721893;83;21072;-56
2021/01/17 07:36:15;;;;;;;36.93;17.98;;;;;;;-8.88;76.84;99556.41;1716109;83;21265;-55
2021/01/17 07:38:45;;;;;;;31.10;16.05;;;;;;;-8.84;76.16;99554.48;1722158;83;21208;-55
2021/01/17 07:41:14;;;;;;;27.87;15.38;;;;;;;-8.85;75.73;99557.80;1705325;84;21095;-58
2021/01/17 07:43:44;;;;;;;30.05;16.00;;;;;;;-8.85;75.59;99562.84;1747723;82;21513;-55
2021/01/17 07:46:16;;;;;;;23.92;13.15;;;;;;;-8.84;75.28;99560.41;1747643;82;21565;-55
2021/01/17 07:48:46;;;;;;;31.50;16.27;;;;;;;-8.82;75.32;99561.73;1747582;82;21196;-59
2021/01/17 07:51:15;;;;;;;43.83;21.75;;;;;;;-8.76;75.21;99564.14;1747675;82;21620;-55
2021/01/17 07:54:11;;;;;;;37.45;19.45;;;;;;;-8.67;74.94;99567.08;1747578;82;21080;-55
2021/01/17 07:56:39;;;;;;;39.67;18.82;;;;;;;-8.64;74.71;99562.56;1747763;82;21410;-55
2021/01/17 07:59:08;;;;;;;36.68;17.87;;;;;;;-8.53;74.40;99570.62;1747567;82;21147;-55
2021/01/17 08:01:43;;;;;;;38.48;19.07;;;;;;;-8.45;74.10;99566.80;1747737;82;22239;-56
2021/01/17 08:04:18;;;;;;;40.67;19.65;;;;;;;-8.38;73.74;99575.09;1747692;82;21127;-55
2021/01/17 08:06:49;;;;;;;37.95;18.52;;;;;;;-8.37;73.45;99575.55;1760338;79;21142;-58
2021/01/17 08:09:19;;;;;;;47.33;22.02;;;;;;;-8.37;73.32;99581.00;1780033;80;21139;-57
2021/01/17 08:11:56;;;;;;;43.30;21.77;;;;;;;-8.34;73.13;99584.88;1780092;80;21128;-57
2021/01/17 08:14:28;;;;;;;32.70;17.55;;;;;;;-8.31;72.73;99581.21;1779086;80;21266;-55
2021/01/17 08:17:19;;;;;;;32.33;17.42;;;;;;;-8.33;72.31;99579.89;1780186;80;21112;-55
2021/01/17 08:19:56;;;;;;;37.20;19.55;;;;;;;-8.33;72.43;99589.98;1780009;80;21107;-57
2021/01/17 08:22:30;;;;;;;44.18;20.95;;;;;;;-8.28;72.01;99591.05;1780149;80;21604;-56
2021/01/17 08:25:03;;;;;;;34.18;16.32;;;;;;;-8.28;71.77;99596.50;1780024;80;21183;-56
2021/01/17 08:27:37;;;;;;;33.70;16.52;;;;;;;-8.26;71.21;99602.06;1780037;80;21365;-56
2021/01/17 08:30:19;;;;;;;26.10;15.48;;;;;;;-8.23;70.89;99607.27;1779932;80;21541;-56
2021/01/17 08:32:54;;;;;;;35.52;17.90;;;;;;;-8.21;70.43;99610.71;1779986;80;21100;-58
2021/01/17 08:35:28;;;;;;;27.15;13.45;;;;;;;-8.23;70.21;99614.83;1780284;80;21048;-55
2021/01/17 08:38:11;;;;;;;39.92;18.55;;;;;;;-8.24;69.57;99613.48;1780075;80;21151;-55
2021/01/17 08:40:42;;;;;;;32.42;17.25;;;;;;;-8.31;69.55;99618.67;1780194;80;21438;-55
2021/01/17 08:43:15;;;;;;;33.55;15.83;;;;;;;-8.28;69.88;99616.27;1779861;80;21108;-55
2021/01/17 08:45:48;;;;;;;37.50;17.37;;;;;;;-8.20;69.57;99622.92;1779950;80;21049;-56
2021/01/17 08:48:20;;;;;;;29.10;15.88;;;;;;;-8.15;69.33;99632.83;1780161;80;21160;-55
2021/01/17 08:50:58;;;;;;;31.73;16.73;;;;;;;-8.21;69.00;99637.19;1780103;80;21084;-61
2021/01/17 08:53:33;;;;;;;27.30;14.47;;;;;;;-8.29;69.02;99634.73;1758598;81;21214;-56
2021/01/17 08:56:12;;;;;;;36.65;17.95;;;;;;;-8.36;69.22;99639.45;1766741;81;21505;-56
2021/01/17 08:58:42;;;;;;;36.35;18.75;;;;;;;-8.34;69.22;99639.95;1765246;81;21504;-56
2021/01/17 09:01:11;;;;;;;29.37;15.25;;;;;;;-8.29;69.33;99641.03;1766701;81;21146;-56
2021/01/17 09:03:48;;;;;;;33.75;19.57;;;;;;;-8.27;68.84;99642.36;1766981;81;21104;-56
2021/01/17 09:06:21;;;;;;;45.92;24.00;;;;;;;-8.35;69.03;99639.52;1765278;81;21214;-57
2021/01/17 09:08:58;;;;;;;32.63;17.77;;;;;;;-8.34;69.27;99634.05;1735664;82;21095;-60
2021/01/17 09:11:36;;;;;;;23.85;13.98;;;;;;;-8.28;69.30;99641.89;1735636;82;21159;-57
2021/01/17 09:14:24;;;;;;;27.80;14.83;;;;;;;-8.26;68.81;99641.55;1738312;82;21090;-57
2021/01/17 09:16:59;;;;;;;44.53;22.58;;;;;;;-8.30;68.30;99650.66;1706280;84;21514;-57
2021/01/17 09:19:31;;;;;;;40.50;19.48;;;;;;;-8.38;68.38;99657.05;1718998;83;21293;-57
2021/01/17 09:22:00;;;;;;;27.80;14.33;;;;;;;-8.39;68.40;99656.55;1738362;82;21119;-56
2021/01/17 09:24:30;;;;;;;30.02;16.12;;;;;;;-8.37;68.65;99657.50;1738632;82;21149;-56
2021/01/17 09:27:04;;;;;;;28.62;15.35;;;;;;;-8.27;68.56;99654.96;1738139;82;21134;-57
2021/01/17 09:29:39;;;;;;;27.02;13.90;;;;;;;-8.22;68.27;99654.39;1738532;82;21063;-56
2021/01/17 09:32:12;;;;;;;22.37;12.55;;;;;;;-8.18;67.67;99658.76;1738579;82;22269;-55
2021/01/17 09:34:46;;;;;;;23.98;14.47;;;;;;;-8.15;67.57;99653.88;1738560;82;21500;-56
2021/01/17 09:37:16;;;;;;;22.75;13.53;;;;;;;-8.12;67.49;99648.09;1738429;82;21411;-56
2021/01/17 09:39:46;;;;;;;31.60;16.25;;;;;;;-8.04;67.44;99645.91;1738348;82;21066;-55
2021/01/17 09:42:16;;;;;;;32.10;17.48;;;;;;;-8.00;67.07;99652.83;1738412;82;37384;-56
2021/01/17 09:45:00;;;;;;;33.15;16.62;;;;;;;-8.01;66.90;99651.08;1738520;82;21297;-56
2021/01/17 09:47:28;;;;;;;34.33;15.75;;;;;;;-8.03;66.57;99658.98;1738521;82;21118;-57
2021/01/17 09:50:11;;;;;;;32.83;18.25;;;;;;;-8.08;66.84;99659.16;1738218;82;21119;-58
2021/01/17 09:52:40;;;;;;;26.97;15.03;;;;;;;-8.05;66.72;99660.58;1738624;82;21072;-56
2021/01/17 09:55:11;;;;;;;28.00;15.08;;;;;;;-8.08;66.52;99656.27;1738333;82;21566;-56
2021/01/17 09:57:40;;;;;;;33.80;17.00;;;;;;;-8.06;66.43;99661.38;1738412;82;21440;-57
2021/01/17 10:00:21;;;;;;;22.58;12.88;;;;;;;-8.05;66.31;99655.53;1738224;82;21138;-57
2021/01/17 10:02:49;;;;;;;36.23;19.10;;;;;;;-8.02;66.14;99662.83;1738648;82;21591;-58
2021/01/17 10:05:28;;;;;;;46.25;21.87;;;;;;;-8.01;66.09;99664.95;1738353;82;21362;-58
2021/01/17 10:08:05;;;;;;;48.85;21.68;;;;;;;-8.00;66.22;99667.97;1750198;81;21155;-57
2021/01/17 10:10:33;;;;;;;;;;;;;;;-8.02;66.07;99661.56;1774928;81;21581;-56
2021/01/17 10:13:01;;;;;;;37.58;19.92;;;;;;;-7.99;65.73;99660.86;1772760;81;20651;-56
2021/01/17 10:15:29;;;;;;;29.12;16.17;;;;;;;-8.07;65.15;99659.66;1729121;82;21069;-56
2021/01/17 10:17:57;;;;;;;36.20;18.80;;;;;;;-8.13;65.15;99661.50;1741970;82;21597;-57
2021/01/17 10:20:28;;;;;;;37.50;20.43;;;;;;;-8.14;65.21;99654.73;1741573;82;21172;-57
2021/01/17 10:23:06;;;;;;;27.80;16.65;;;;;;;-8.10;65.39;99652.80;1742290;82;21202;-58
2021/01/17 10:25:35;;;;;;;29.20;13.93;;;;;;;-8.00;65.38;99660.00;1741975;82;21089;-56
2021/01/17 10:28:06;;;;;;;24.07;12.98;;;;;;;-7.95;64.77;99661.45;1741736;82;21077;-57
2021/01/17 10:30:38;;;;;;;27.95;15.88;;;;;;;-7.87;64.78;99663.91;1742021;82;21622;-56
2021/01/17 10:33:14;;;;;;;25.50;13.50;;;;;;;-7.80;64.65;99660.86;1742053;82;21582;-57
2021/01/17 10:35:47;;;;;;;30.62;16.97;;;;;;;-7.73;64.07;99674.61;1741944;82;21198;-56
2021/01/17 10:38:16;;;;;;;30.45;15.32;;;;;;;-7.83;63.89;99673.36;1741881;82;21879;-56
2021/01/17 10:40:44;;;;;;;29.15;14.80;;;;;;;-7.84;63.98;99676.67;1741925;82;21499;-56
2021/01/17 10:43:32;;;;;;;29.50;15.30;;;;;;;-7.83;63.98;99678.00;1741775;82;21096;-56
2021/01/17 10:46:09;;;;;;;22.48;12.70;;;;;;;-7.80;63.87;99683.57;1741897;82;21066;-57
2021/01/17 10:48:54;;;;;;;28.07;12.88;;;;;;;-7.85;63.39;99680.86;1742220;82;21306;-56
2021/01/17 10:51:44;;;;;;;32.30;15.93;;;;;;;-8.13;63.60;99677.50;1741944;82;21130;-56
2021/01/17 10:54:17;;;;;;;29.32;15.15;;;;;;;-8.27;64.12;99676.00;1741943;82;21063;-56
2021/01/17 10:56:46;;;;;;;33.10;15.75;;;;;;;-8.27;64.35;99677.66;1742053;81;21173;-56
2021/01/17 10:59:14;;;;;;;23.70;12.58;;;;;;;-8.27;64.59;99685.23;1742005;82;21078;-56
2021/01/17 11:01:50;;;;;;;33.15;16.90;;;;;;;-8.25;64.44;99679.45;1717416;82;22339;-56
2021/01/17 11:04:16;;;;;;;33.95;15.85;;;;;;;-8.35;64.67;99681.13;1741571;82;21180;-56
2021/01/17 11:06:45;;;;;;;35.08;17.10;;;;;;;-8.36;64.90;99684.44;1742152;82;21073;-56
2021/01/17 11:09:16;;;;;;;57.83;27.82;;;;;;;-8.34;64.74;99680.69;1741921;81;21132;-56
2021/01/17 11:11:50;;;;;;;36.00;19.25;;;;;;;-8.35;64.94;99676.08;1742276;82;21176;-56
2021/01/17 11:14:27;;;;;;;43.15;21.93;;;;;;;-8.37;64.90;99678.94;1741966;82;22233;-56
2021/01/17 11:16:55;;;;;;;47.70;22.07;;;;;;;-8.38;64.49;99682.26;1742150;82;21171;-56
2021/01/17 11:19:38;;;;;;;30.72;16.15;;;;;;;-8.44;64.86;99681.97;1742039;82;21129;-56
2021/01/17 11:22:07;;;;;;;25.05;14.85;;;;;;;-8.47;64.69;99685.59;1741841;82;21124;-56
2021/01/17 11:24:37;;;;;;;25.62;13.72;;;;;;;-8.52;64.59;99682.87;1742114;82;21152;-56
2021/01/17 11:27:08;;;;;;;22.48;12.82;;;;;;;-8.55;64.55;99681.45;1741964;82;21401;-56
2021/01/17 11:29:37;;;;;;;37.75;20.10;;;;;;;-8.57;64.49;99677.14;1742116;82;21124;-56
2021/01/17 11:32:05;;;;;;;42.95;19.85;;;;;;;-8.62;64.72;99674.78;1741875;82;21148;-56
2021/01/17 11:34:39;;;;;;;28.27;14.80;;;;;;;-8.57;65.21;99673.36;1742157;82;21152;-56
2021/01/17 11:37:08;;;;;;;25.52;13.28;;;;;;;-8.48;65.03;99675.03;1741754;82;21117;-57
2021/01/17 11:39:36;;;;;;;28.20;15.20;;;;;;;-8.44;64.78;99683.23;1742095;82;21193;-56